Time;durP1;ratioP1;P1;durP2;ratioP2;P2;SDS_P1;SDS_P2;PMS_P1;PMS_P2;Temp;Humidity;BMP_temperature;BMP_pressure;BME280_temperature;BME280_humidity;BME280_pressure;Samples;Min_cycle;Max_cycle;Signal;HPM_P1;HPM_P2
2022/12/22 03:27:21;;;;;;;7.70;5.43;;;;;;;-0.59;83.62;61941.56;5004244;28;20432;-75
2022/12/22 03:29:48;;;;;;;7.68;6.13;;;;;;;-0.57;82.95;61938.09;5005782;28;20496;-76
2022/12/22 03:32:15;;;;;;;10.55;6.60;;;;;;;-0.56;82.77;61944.09;5001695;28;20242;-76
2022/12/22 03:34:44;;;;;;;10.18;6.95;;;;;;;-0.61;82.95;61939.50;5005976;28;20266;-76
2022/12/22 03:37:11;;;;;;;13.43;6.90;;;;;;;-0.56;83.15;61944.63;5005139;28;20614;-77
2022/12/22 03:39:38;;;;;;;10.15;6.97;;;;;;;-0.52;82.71;61950.72;5004232;28;20207;-75
2022/12/22 03:47:38;;;;;;;18.02;9.18;;;;;;;-0.50;84.12;61950.25;4954547;28;20208;-75
2022/12/22 03:50:08;;;;;;;12.73;7.90;;;;;;;-0.45;83.37;61955.38;5005079;28;20271;-76
2022/12/22 03:52:35;;;;;;;20.73;6.32;;;;;;;-0.39;82.22;61959.00;5005027;28;20227;-77
2022/12/22 03:55:02;;;;;;;7.00;5.28;;;;;;;-0.41;81.30;61956.97;5004995;28;20256;-76
2022/12/22 03:57:29;;;;;;;9.48;5.78;;;;;;;-0.38;80.74;61965.06;5004040;28;20226;-76
2022/12/22 03:59:56;;;;;;;10.38;5.55;;;;;;;-0.49;79.92;61953.78;5005686;28;20211;-75
2022/12/22 04:02:23;;;;;;;5.82;4.60;;;;;;;-0.38;80.11;61962.56;5008640;28;20445;-76
2022/12/22 04:04:50;;;;;;;7.43;4.53;;;;;;;-0.38;79.86;61960.06;5004433;28;20215;-74
2022/12/22 04:07:19;;;;;;;9.30;5.50;;;;;;;-0.30;79.21;61970.75;4996068;28;20218;-76
2022/12/22 04:15:10;;;;;;;9.02;4.50;;;;;;;-0.28;78.13;61972.78;5006576;28;20247;-76
2022/12/22 04:17:37;;;;;;;8.18;4.68;;;;;;;-0.28;78.15;61970.28;5005765;28;20199;-75
2022/12/22 04:20:05;;;;;;;7.60;4.90;;;;;;;-0.23;78.02;61980.41;5003698;28;20250;-75
2022/12/22 04:22:34;;;;;;;8.45;4.47;;;;;;;-0.24;76.49;61976.88;5004447;28;20242;-75
2022/12/22 04:25:01;;;;;;;8.05;5.40;;;;;;;-0.26;76.97;61975.34;5004805;28;20589;-76
2022/12/22 04:27:28;;;;;;;8.98;5.63;;;;;;;-0.59;77.07;61946.03;5002321;28;20226;-75
2022/12/22 04:29:54;;;;;;;5.95;5.20;;;;;;;-0.35;77.37;61965.63;5008754;28;20230;-75
2022/12/22 04:32:21;;;;;;;12.55;6.57;;;;;;;-0.32;77.82;61968.69;5000122;28;20273;-75
2022/12/22 04:34:48;;;;;;;8.82;6.50;;;;;;;-0.36;78.18;61964.59;5000727;28;20424;-75
2022/12/22 04:37:15;;;;;;;8.98;7.28;;;;;;;-0.37;78.84;61964.09;5001182;28;20223;-74
2022/12/22 04:39:44;;;;;;;11.60;7.68;;;;;;;-0.36;78.69;61962.09;5007269;28;20266;-75
2022/12/22 04:42:11;;;;;;;10.70;7.13;;;;;;;-0.41;79.45;61962.47;4990504;28;20231;-75
2022/12/22 04:44:38;;;;;;;13.77;7.50;;;;;;;-0.39;79.45;61961.50;5004557;28;20222;-75
2022/12/22 04:47:05;;;;;;;19.90;9.68;;;;;;;-0.34;80.02;61964.13;5004068;28;20270;-75
2022/12/22 04:49:32;;;;;;;15.02;8.52;;;;;;;-0.36;80.67;61965.09;5003831;28;20496;-75
2022/12/22 04:52:01;;;;;;;15.63;11.02;;;;;;;-0.38;81.25;61960.06;5000986;28;20230;-75
2022/12/22 04:54:28;;;;;;;28.23;12.65;;;;;;;-0.38;81.66;61965.06;5001073;28;20260;-75
2022/12/22 04:56:56;;;;;;;19.27;10.45;;;;;;;-0.41;82.08;61959.97;5004796;28;20250;-76
2022/12/22 04:59:23;;;;;;;17.50;10.65;;;;;;;-0.42;82.40;61958.97;5004355;28;20199;-75
2022/12/22 05:01:50;;;;;;;22.38;11.70;;;;;;;-0.46;82.76;61954.84;5001871;28;20232;-76
2022/12/22 05:04:17;;;;;;;26.15;13.10;;;;;;;-0.39;83.31;61962.03;4992775;28;20207;-76
2022/12/22 05:06:44;;;;;;;15.45;8.80;;;;;;;-0.40;83.44;61965.50;5001041;28;20223;-74
2022/12/22 05:09:11;;;;;;;9.80;5.95;;;;;;;-0.44;83.26;61958.91;5000715;28;20669;-75
2022/12/22 05:11:39;;;;;;;17.77;9.32;;;;;;;-0.40;82.71;61958.50;5008041;28;20235;-76
2022/12/22 05:14:07;;;;;;;16.70;8.13;;;;;;;-0.42;82.84;61958.97;5004283;28;20200;-76
2022/12/22 05:16:34;;;;;;;17.85;8.48;;;;;;;-0.49;82.83;61951.78;5007597;28;20415;-75
2022/12/22 05:19:01;;;;;;;13.55;7.32;;;;;;;-0.48;82.93;61952.28;5003588;28;20219;-75
2022/12/22 05:21:29;;;;;;;14.00;8.98;;;;;;;-0.50;83.30;61947.75;4997317;28;20277;-75
2022/12/22 05:23:56;;;;;;;20.30;10.13;;;;;;;-0.61;83.70;61939.50;5000710;28;20267;-76
2022/12/22 05:26:23;;;;;;;14.40;9.15;;;;;;;-0.58;84.10;61939.56;4994649;28;20286;-73
2022/12/22 05:28:51;;;;;;;19.77;9.93;;;;;;;-0.63;84.22;61942.44;4998041;28;20214;-76
2022/12/22 05:31:22;;;;;;;16.63;10.00;;;;;;;-0.62;84.85;61943.47;5007520;28;20242;-75
2022/12/22 05:33:50;;;;;;;19.75;10.77;;;;;;;-0.63;85.26;61937.44;5001923;28;20255;-74
2022/12/22 05:36:17;;;;;;;17.45;9.40;;;;;;;-0.65;85.57;61935.41;5009721;28;20227;-75
2022/12/22 05:38:44;;;;;;;14.45;8.70;;;;;;;-0.71;85.63;61926.25;5011129;28;20199;-75
2022/12/22 05:41:11;;;;;;;14.13;8.40;;;;;;;-0.80;85.64;61917.53;5008483;28;20502;-75
2022/12/22 05:43:40;;;;;;;19.27;9.77;;;;;;;-0.76;86.39;61923.63;5015962;28;20230;-74
2022/12/22 05:46:09;;;;;;;19.27;11.07;;;;;;;-0.79;86.85;61923.56;4988495;28;20228;-75
2022/12/22 05:48:39;;;;;;;15.45;10.25;;;;;;;-0.80;87.40;61917.03;4988008;28;20389;-76
2022/12/22 05:51:07;;;;;;;25.50;12.55;;;;;;;-0.80;87.89;61919.53;4996867;28;20238;-75
2022/12/22 05:53:34;;;;;;;21.95;13.38;;;;;;;-0.82;87.79;61915.50;5004294;28;20530;-75
2022/12/22 05:56:01;;;;;;;22.90;13.00;;;;;;;-0.72;87.33;61930.22;5003489;28;20235;-75
2022/12/22 05:58:28;;;;;;;22.55;12.82;;;;;;;-0.73;87.35;61931.69;5008010;28;20199;-76
2022/12/22 06:00:57;;;;;;;34.50;14.43;;;;;;;-0.71;87.22;61931.25;5009033;28;20247;-75
2022/12/22 06:03:24;;;;;;;22.75;12.45;;;;;;;-0.67;87.19;61930.84;5004716;28;20418;-76
2022/12/22 06:05:53;;;;;;;16.00;10.73;;;;;;;-0.67;87.29;61927.84;5006493;28;20243;-75
2022/12/22 06:08:20;;;;;;;10.73;7.30;;;;;;;-0.63;86.26;61934.94;5008306;28;20234;-76
2022/12/22 06:10:47;;;;;;;13.70;8.13;;;;;;;-0.61;85.14;61939.50;5007408;28;20253;-75
2022/12/22 06:13:15;;;;;;;9.52;6.35;;;;;;;-0.61;84.59;61946.47;5008025;28;20206;-75
2022/12/22 06:15:42;;;;;;;13.55;6.72;;;;;;;-0.58;84.00;61947.56;5006631;28;20286;-75
2022/12/22 06:18:09;;;;;;;15.20;7.32;;;;;;;-0.52;83.70;61953.22;5006707;28;20274;-73
2022/12/22 06:20:36;;;;;;;14.73;8.85;;;;;;;-0.50;84.20;61950.75;5005301;28;20441;-75
2022/12/22 06:23:04;;;;;;;20.58;10.93;;;;;;;-0.48;84.32;61957.28;4992537;28;20211;-75
2022/12/22 06:25:31;;;;;;;22.23;10.70;;;;;;;-0.44;84.89;61956.91;4991137;28;20291;-74
2022/12/22 06:27:59;;;;;;;19.10;11.98;;;;;;;-0.34;85.08;61967.16;4986583;28;20247;-75
2022/12/22 06:30:26;;;;;;;12.85;9.13;;;;;;;-0.32;85.09;61969.19;4998331;28;20254;-75
2022/12/22 06:32:52;;;;;;;12.82;7.82;;;;;;;-0.31;84.94;61967.72;5000494;28;20398;-74
2022/12/22 06:35:20;;;;;;;17.77;9.40;;;;;;;-0.30;84.83;61973.25;5005099;28;20285;-75
2022/12/22 06:37:46;;;;;;;23.67;12.05;;;;;;;-0.37;83.83;61966.59;5005757;28;20262;-76
2022/12/22 06:40:15;;;;;;;29.40;16.08;;;;;;;-0.17;84.28;61986.56;5005374;28;20250;-74
2022/12/22 06:45:26;;;;;;;28.80;14.32;;;;;;;-0.10;86.05;61996.22;5004964;28;20195;-75
2022/12/22 06:47:53;;;;;;;31.45;16.08;;;;;;;-0.07;85.86;61994.81;5002843;28;20223;-74
2022/12/22 06:50:20;;;;;;;28.02;17.85;;;;;;;-0.04;86.50;61997.38;5001916;28;20215;-75
2022/12/22 06:52:47;;;;;;;32.08;16.92;;;;;;;-0.03;86.53;61998.41;5005882;28;20298;-74
2022/12/22 06:55:16;;;;;;;35.10;20.38;;;;;;;0.15;84.48;62019.34;5010785;28;20468;-74
2022/12/22 06:57:43;;;;;;;31.45;18.45;;;;;;;0.32;83.85;62028.75;5004887;28;20238;-75
2022/12/22 07:00:11;;;;;;;38.22;18.00;;;;;;;0.31;83.80;62035.75;5004603;28;20200;-76
2022/12/22 07:02:38;;;;;;;34.35;18.73;;;;;;;0.29;85.30;62028.19;5003990;28;20215;-76
2022/12/22 07:05:06;;;;;;;34.35;17.92;;;;;;;0.31;88.18;62033.25;5004003;28;20218;-75
2022/12/22 07:07:32;;;;;;;32.97;19.13;;;;;;;0.19;90.55;62025.94;5004767;28;20219;-75
2022/12/22 07:09:59;;;;;;;32.03;19.20;;;;;;;0.26;91.55;62025.13;5009976;28;20199;-74
2022/12/22 07:12:28;;;;;;;36.15;18.50;;;;;;;0.34;92.22;62038.31;5005492;28;20275;-74
2022/12/22 07:14:55;;;;;;;41.85;21.10;;;;;;;0.42;92.79;62041.50;4998816;28;20203;-75
2022/12/22 07:17:22;;;;;;;41.92;20.17;;;;;;;0.73;93.16;62078.28;5005127;28;20231;-75
2022/12/22 07:19:49;;;;;;;32.70;19.17;;;;;;;1.03;92.19;62102.06;5004869;28;20370;-75
2022/12/22 07:22:18;;;;;;;37.63;20.17;;;;;;;1.26;90.35;62127.66;5008014;28;20230;-75
2022/12/22 07:24:45;;;;;;;35.95;19.25;;;;;;;1.28;87.47;62129.69;5004992;28;20218;-76
2022/12/22 07:27:11;;;;;;;39.10;21.02;;;;;;;1.17;88.47;62123.94;4998554;28;20231;-74
2022/12/22 07:29:40;;;;;;;32.20;18.92;;;;;;;1.28;88.32;62131.72;4993951;28;20192;-74
2022/12/22 07:32:08;;;;;;;40.28;21.80;;;;;;;1.07;88.84;62110.69;4998368;28;20266;-76
2022/12/22 07:34:35;;;;;;;42.75;21.48;;;;;;;1.03;91.06;62109.06;4999650;28;20257;-75
2022/12/22 07:37:02;;;;;;;35.03;20.13;;;;;;;1.10;91.94;62111.25;4997137;28;20239;-77
2022/12/22 07:39:29;;;;;;;51.65;21.92;;;;;;;1.21;92.14;62127.53;4991227;28;20236;-75
2022/12/22 07:44:41;;;;;;;43.55;22.05;;;;;;;1.28;91.04;62129.69;4991393;28;20275;-75
2022/12/22 07:47:09;;;;;;;44.92;21.58;;;;;;;1.41;91.03;62143.06;4985166;28;20493;-75
2022/12/22 07:52:20;;;;;;;50.03;23.90;;;;;;;1.22;90.45;62123.03;4989015;28;20287;-75
2022/12/22 07:54:47;;;;;;;56.55;25.77;;;;;;;1.21;90.11;62125.03;4992274;28;20211;-77
2022/12/22 07:57:14;;;;;;;77.68;28.95;;;;;;;1.16;91.19;62117.38;4996813;28;20231;-74
2022/12/22 07:59:42;;;;;;;43.92;25.52;;;;;;;1.25;91.29;62128.63;5004342;28;20304;-75
2022/12/22 08:02:11;;;;;;;38.33;24.42;;;;;;;1.39;89.91;62140.47;5000098;28;20220;-76
2022/12/22 08:04:38;;;;;;;49.83;24.65;;;;;;;1.47;89.61;62154.22;5006802;28;20234;-75
2022/12/22 08:07:05;;;;;;;46.22;24.25;;;;;;;1.50;90.24;62151.78;5004725;28;20227;-75
2022/12/22 08:09:32;;;;;;;39.97;24.10;;;;;;;1.59;90.07;62161.00;5004286;28;20266;-75
2022/12/22 08:11:59;;;;;;;40.92;24.02;;;;;;;1.62;90.64;62166.59;4993059;28;20246;-76
2022/12/22 08:14:26;;;;;;;49.47;24.67;;;;;;;1.70;90.26;62172.28;4991107;28;20204;-75
2022/12/22 08:16:55;;;;;;;50.30;25.75;;;;;;;1.73;89.79;62180.38;5006167;28;20241;-75
2022/12/22 08:19:22;;;;;;;55.67;25.23;;;;;;;1.67;89.62;62172.25;5008525;28;20203;-75
2022/12/22 08:21:49;;;;;;;44.53;23.73;;;;;;;1.71;89.60;62173.31;5002914;28;20290;-75
2022/12/22 08:24:18;;;;;;;49.08;25.48;;;;;;;1.89;89.65;62194.81;5004797;28;20199;-78
2022/12/22 08:26:53;;;;;;;44.70;26.05;;;;;;;1.99;89.19;62202.06;4997363;28;20216;-75
2022/12/22 08:29:29;;;;;;;58.85;27.70;;;;;;;2.12;89.57;62218.44;5006541;28;20274;-75
2022/12/22 08:32:01;;;;;;;53.95;28.25;;;;;;;2.23;89.08;62234.75;4997587;28;20223;-77
2022/12/22 08:34:28;;;;;;;52.50;27.48;;;;;;;2.36;88.28;62238.06;4995935;28;20206;-76
2022/12/22 08:36:58;;;;;;;47.22;28.20;;;;;;;2.51;87.08;62254.94;4984764;28;20235;-75
2022/12/22 08:39:27;;;;;;;52.17;27.13;;;;;;;2.60;86.41;62269.22;4994724;28;20212;-75
2022/12/22 08:41:55;;;;;;;45.53;27.80;;;;;;;2.59;85.18;62263.19;4996229;28;20468;-76
2022/12/22 08:44:24;;;;;;;56.53;27.45;;;;;;;2.67;84.67;62271.91;4992779;28;20192;-75
2022/12/22 08:46:52;;;;;;;50.25;28.60;;;;;;;2.76;83.05;62286.16;4985604;28;20227;-75
2022/12/22 08:49:21;;;;;;;66.18;27.70;;;;;;;2.64;82.62;62268.81;4988062;28;20203;-74
2022/12/22 08:51:50;;;;;;;44.33;27.17;;;;;;;2.61;82.52;62270.75;4996844;28;20223;-77
2022/12/22 08:54:17;;;;;;;54.05;27.83;;;;;;;2.72;82.61;62277.03;4985878;28;20200;-75
2022/12/22 08:56:44;;;;;;;55.60;27.08;;;;;;;2.94;81.89;62304.69;4988484;28;20232;-75
2022/12/22 08:59:12;;;;;;;51.05;27.23;;;;;;;3.05;78.04;62316.00;4987303;28;20215;-74
2022/12/22 09:01:42;;;;;;;53.40;27.80;;;;;;;3.01;75.83;62306.31;4996028;28;20231;-75
2022/12/22 09:04:11;;;;;;;46.33;27.67;;;;;;;3.16;76.51;62327.28;4988560;28;20202;-76
2022/12/22 09:06:41;;;;;;;42.97;25.38;;;;;;;3.28;74.86;62332.06;4994220;28;20227;-75
2022/12/22 09:09:10;;;;;;;59.00;26.52;;;;;;;3.35;73.84;62339.28;4993472;28;20199;-74
2022/12/22 09:11:38;;;;;;;48.53;25.95;;;;;;;3.36;73.27;62342.31;4992819;28;20231;-75
2022/12/22 09:14:06;;;;;;;48.35;22.75;;;;;;;3.50;73.06;62362.22;4987955;28;20224;-74
2022/12/22 09:16:34;;;;;;;42.45;22.05;;;;;;;3.68;73.03;62379.72;4998106;28;20515;-75
2022/12/22 09:19:01;;;;;;;43.53;21.50;;;;;;;3.60;70.71;62369.50;4990491;28;20199;-75
2022/12/22 09:21:29;;;;;;;42.38;20.83;;;;;;;3.53;71.26;62359.78;4997599;28;20523;-76
2022/12/22 09:23:58;;;;;;;39.53;20.10;;;;;;;3.43;72.10;62352.03;4990355;28;20555;-76
2022/12/22 09:26:27;;;;;;;30.27;19.77;;;;;;;3.43;72.57;62357.56;4997373;28;20283;-76
2022/12/22 09:28:55;;;;;;;40.75;20.75;;;;;;;3.65;72.18;62377.16;4997047;28;20286;-75
2022/12/22 09:31:24;;;;;;;37.08;19.75;;;;;;;3.78;71.18;62390.00;4991196;28;20235;-75
2022/12/22 09:33:51;;;;;;;40.58;21.48;;;;;;;3.87;71.42;62399.25;4992308;28;20475;-75
2022/12/22 09:36:22;;;;;;;38.80;21.02;;;;;;;3.87;70.86;62394.22;5003737;28;20242;-76
2022/12/22 09:38:49;;;;;;;44.50;21.38;;;;;;;3.80;71.00;62387.53;4992846;28;20251;-75
2022/12/22 09:41:20;;;;;;;44.38;22.25;;;;;;;3.98;71.41;62408.59;4995927;28;20240;-75
2022/12/22 09:43:48;;;;;;;38.33;21.55;;;;;;;3.93;70.92;62400.91;4992270;28;20420;-76
2022/12/22 09:46:21;;;;;;;37.90;22.10;;;;;;;4.08;71.37;62421.38;4993859;28;20234;-76
2022/12/22 09:48:48;;;;;;;44.75;22.67;;;;;;;4.23;71.17;62431.25;4999143;28;20208;-76
2022/12/22 09:51:16;;;;;;;46.15;22.35;;;;;;;4.25;70.13;62435.84;4990635;28;20231;-76
2022/12/22 09:53:44;;;;;;;39.15;22.52;;;;;;;4.45;70.03;62453.91;4989742;28;20201;-76
2022/12/22 09:56:14;;;;;;;45.88;22.85;;;;;;;4.56;69.25;62467.75;5011235;28;20239;-77
2022/12/22 09:58:43;;;;;;;40.70;24.15;;;;;;;4.65;68.91;62480.06;5011917;28;20211;-75
2022/12/22 10:01:27;;;;;;;44.22;24.25;;;;;;;4.76;69.72;62488.34;5010259;28;20238;-76
2022/12/22 10:04:00;;;;;;;44.40;25.90;;;;;;;4.87;68.77;62501.69;5009159;28;20192;-77
2022/12/22 10:06:34;;;;;;;41.92;26.83;;;;;;;4.99;69.18;62517.06;4988736;28;20227;-75
2022/12/22 10:09:10;;;;;;;41.10;26.15;;;;;;;5.07;69.04;62524.78;4990098;28;20437;-75
2022/12/22 10:11:37;;;;;;;47.67;27.42;;;;;;;5.03;68.35;62516.13;5003662;28;20626;-76
2022/12/22 10:14:05;;;;;;;51.45;26.42;;;;;;;4.93;69.04;62507.84;5002392;28;20265;-76
2022/12/22 10:16:32;;;;;;;48.70;27.83;;;;;;;5.05;68.58;62517.69;5000599;28;20227;-77
2022/12/22 10:19:06;;;;;;;48.67;28.75;;;;;;;5.13;68.66;62523.38;5003689;28;20203;-77
2022/12/22 10:21:33;;;;;;;47.72;27.33;;;;;;;5.26;67.83;62544.88;5002159;28;20294;-76
2022/12/22 10:24:00;;;;;;;50.50;28.20;;;;;;;5.29;67.08;62540.38;5004747;28;20199;-75
2022/12/22 10:26:32;;;;;;;44.72;27.83;;;;;;;5.39;66.76;62550.69;5010006;28;20243;-75
2022/12/22 10:29:03;;;;;;;52.47;30.20;;;;;;;5.28;66.95;62539.34;5007757;28;20392;-76
2022/12/22 10:31:34;;;;;;;46.80;27.80;;;;;;;5.46;66.78;62559.91;5009100;28;20219;-76
2022/12/22 10:34:11;;;;;;;46.88;28.55;;;;;;;5.64;66.51;62578.44;5007657;28;20187;-76
2022/12/22 10:36:40;;;;;;;50.88;27.85;;;;;;;5.74;64.88;62586.75;5007688;28;20233;-76
2022/12/22 10:39:09;;;;;;;52.47;31.35;;;;;;;5.93;64.61;62610.38;5009765;28;20238;-76
2022/12/22 10:41:38;;;;;;;48.75;28.98;;;;;;;6.10;64.50;62628.41;4993602;28;20236;-76
2022/12/22 10:44:09;;;;;;;55.35;31.02;;;;;;;6.04;63.12;62619.19;4988318;28;20312;-76
2022/12/22 10:46:41;;;;;;;55.55;31.55;;;;;;;5.92;63.96;62609.34;4989840;28;20227;-76
2022/12/22 10:49:12;;;;;;;61.72;32.22;;;;;;;6.04;63.46;62621.72;4987851;28;20393;-76
2022/12/22 10:51:43;;;;;;;56.10;30.73;;;;;;;6.21;64.20;62637.22;4989997;28;20216;-76
2022/12/22 10:54:30;;;;;;;68.60;31.90;;;;;;;6.35;62.38;62654.16;4991008;28;20204;-77
2022/12/22 10:57:03;;;;;;;54.78;31.52;;;;;;;6.49;63.06;62668.59;4988807;28;20418;-76
2022/12/22 10:59:32;;;;;;;59.38;31.83;;;;;;;6.49;60.83;62665.56;4990265;28;20268;-76
2022/12/22 11:02:27;;;;;;;49.28;31.30;;;;;;;6.44;60.41;62662.94;4997871;28;20254;-76
2022/12/22 11:05:16;;;;;;;57.17;30.00;;;;;;;6.57;60.60;62673.81;5006753;28;20209;-76
2022/12/22 11:08:04;;;;;;;55.05;32.17;;;;;;;6.69;60.72;62686.19;5015502;28;20215;-78
2022/12/22 11:10:38;;;;;;;60.85;32.05;;;;;;;6.69;60.35;62683.66;4993408;28;20223;-76
2022/12/22 11:13:28;;;;;;;59.60;33.00;;;;;;;6.72;60.61;62692.34;4996738;28;20204;-75
2022/12/22 11:16:02;;;;;;;61.20;34.70;;;;;;;6.73;59.75;62690.31;4998970;28;20299;-76
2022/12/22 11:18:54;;;;;;;56.47;32.80;;;;;;;6.72;59.61;62691.81;5003141;28;20430;-74
2022/12/22 11:21:30;;;;;;;66.28;35.22;;;;;;;6.73;60.22;62690.81;5003891;28;20521;-75
2022/12/22 11:24:08;;;;;;;59.67;33.90;;;;;;;6.74;59.70;62691.34;5004031;28;20226;-75
2022/12/22 11:26:46;;;;;;;63.38;33.33;;;;;;;6.75;59.19;62694.91;5001878;28;20219;-75
2022/12/22 11:29:27;;;;;;;69.32;32.15;;;;;;;6.77;59.85;62694.97;5004131;28;20416;-76
2022/12/22 11:32:10;;;;;;;56.92;33.10;;;;;;;6.95;60.40;62718.06;5006159;28;20250;-76
2022/12/22 11:34:58;;;;;;;54.95;30.83;;;;;;;7.03;58.95;62718.72;5010851;28;20218;-75
2022/12/22 11:37:37;;;;;;;56.95;32.42;;;;;;;7.14;58.71;62735.16;5002319;28;20262;-75
2022/12/22 11:40:13;;;;;;;62.30;31.42;;;;;;;7.19;58.01;62734.72;4991127;28;20207;-76
2022/12/22 11:42:58;;;;;;;48.63;30.83;;;;;;;7.24;57.88;62739.88;5009778;28;20203;-74
2022/12/22 11:45:44;;;;;;;51.22;29.55;;;;;;;7.43;57.06;62765.06;4994383;28;20505;-74
2022/12/22 11:48:40;;;;;;;58.60;30.50;;;;;;;7.24;57.42;62742.41;5006231;28;20259;-77
2022/12/22 11:51:17;;;;;;;50.38;31.10;;;;;;;7.31;56.99;62750.16;4982703;28;20262;-76
2022/12/22 11:54:24;;;;;;;51.80;28.83;;;;;;;7.06;57.80;62726.38;5007281;28;20199;-75
2022/12/22 11:56:59;;;;;;;58.65;32.88;;;;;;;7.10;57.61;62733.53;4993238;28;20242;-75
2022/12/22 11:59:41;;;;;;;57.63;29.23;;;;;;;7.03;57.65;62721.25;5011070;28;20439;-76
2022/12/22 12:02:49;;;;;;;48.97;30.58;;;;;;;7.26;57.27;62745.00;5006293;28;20262;-76
2022/12/22 12:05:51;;;;;;;50.35;29.27;;;;;;;7.42;57.61;62761.00;5008483;28;20215;-77
2022/12/22 12:08:31;;;;;;;56.95;31.85;;;;;;;7.48;56.34;62765.16;4989454;28;20207;-75
2022/12/22 12:11:16;;;;;;;58.53;33.40;;;;;;;7.57;56.25;62769.38;5010895;28;20223;-75
2022/12/22 12:13:52;;;;;;;58.75;32.15;;;;;;;7.63;55.87;62783.19;4996220;28;20206;-75
2022/12/22 12:16:30;;;;;;;54.55;30.38;;;;;;;7.68;55.20;62792.91;5005349;28;20241;-75
2022/12/22 12:19:23;;;;;;;61.17;32.90;;;;;;;7.72;55.52;62791.94;5005705;28;20258;-76
2022/12/22 12:21:53;;;;;;;56.70;32.28;;;;;;;7.73;55.54;62793.00;5005740;28;20235;-75
2022/12/22 12:24:35;;;;;;;60.67;33.83;;;;;;;7.63;55.58;62785.72;5001267;28;20226;-75
2022/12/22 12:27:11;;;;;;;59.25;31.88;;;;;;;7.75;55.57;62795.56;5000213;28;20253;-77
2022/12/22 12:29:46;;;;;;;52.75;31.15;;;;;;;7.90;55.39;62813.56;5006839;28;20210;-75
2022/12/22 12:32:18;;;;;;;60.60;31.35;;;;;;;7.98;54.31;62818.78;5005725;28;20219;-76
2022/12/22 12:34:52;;;;;;;55.25;31.23;;;;;;;8.07;53.91;62831.16;4990758;28;20238;-76
2022/12/22 12:37:22;;;;;;;55.95;31.48;;;;;;;8.19;53.96;62838.47;4995588;28;20235;-77
2022/12/22 12:40:00;;;;;;;63.70;33.53;;;;;;;8.21;53.54;62850.66;5007667;28;20195;-76
2022/12/22 12:42:31;;;;;;;58.25;32.60;;;;;;;8.36;53.94;62860.06;5005853;28;20291;-78
2022/12/22 12:44:59;;;;;;;54.30;32.10;;;;;;;8.52;53.59;62877.13;4999256;28;20532;-77
2022/12/22 12:47:28;;;;;;;61.63;32.83;;;;;;;8.67;53.54;62884.50;4995484;28;20238;-77
2022/12/22 12:50:30;;;;;;;61.20;33.90;;;;;;;8.74;52.37;62899.34;5009718;28;20207;-76
2022/12/22 12:53:15;;;;;;;58.75;33.72;;;;;;;8.68;51.76;62893.66;5009943;28;20511;-75
2022/12/22 12:56:08;;;;;;;63.08;33.95;;;;;;;8.53;52.06;62878.16;5008718;28;20219;-76
2022/12/22 12:58:54;;;;;;;61.67;33.22;;;;;;;8.46;52.23;62872.94;4996230;28;20270;-75
2022/12/22 13:01:58;;;;;;;57.70;33.10;;;;;;;8.54;52.62;62876.66;4990349;28;20216;-74
2022/12/22 13:05:05;;;;;;;62.20;35.15;;;;;;;8.53;53.07;62880.69;4994703;28;20195;-78
2022/12/22 13:08:10;;;;;;;74.20;34.95;;;;;;;8.53;53.31;62873.09;4976289;28;20226;-75
2022/12/22 13:10:40;;;;;;;48.22;29.85;;;;;;;8.60;53.58;62879.78;5004494;28;20215;-77
2022/12/22 13:13:34;;;;;;;61.42;30.65;;;;;;;8.53;53.33;62877.63;5007399;28;20219;-77
2022/12/22 13:16:21;;;;;;;45.28;26.85;;;;;;;8.47;52.26;62866.38;5011105;28;20238;-75
2022/12/22 13:18:50;;;;;;;39.40;20.67;;;;;;;8.45;50.73;62871.91;5008420;28;20366;-77
2022/12/22 13:21:21;;;;;;;35.78;20.23;;;;;;;8.41;50.87;62863.22;5007344;28;20216;-75
2022/12/22 13:23:58;;;;;;;34.40;21.05;;;;;;;8.35;50.80;62859.03;5005290;28;20234;-75
2022/12/22 13:26:31;;;;;;;27.73;16.70;;;;;;;8.21;50.56;62840.53;5010347;28;20234;-75
2022/12/22 13:32:19;;;;;;;55.08;21.95;;;;;;;8.18;51.13;62841.97;5010022;28;20234;-76
2022/12/22 13:34:52;;;;;;;50.88;22.40;;;;;;;8.14;51.17;62838.34;4993261;28;20399;-75
2022/12/22 13:37:21;;;;;;;39.25;18.38;;;;;;;8.12;50.62;62838.84;4989375;28;20232;-76
2022/12/22 13:40:10;;;;;;;28.25;16.05;;;;;;;8.06;50.43;62827.03;4993704;28;20200;-76
2022/12/22 13:42:41;;;;;;;20.08;12.80;;;;;;;7.98;50.16;62821.84;4994839;28;20216;-76
2022/12/22 13:45:20;;;;;;;30.92;17.02;;;;;;;7.89;50.39;62810.00;4993449;28;20315;-76
2022/12/22 13:47:48;;;;;;;26.55;15.90;;;;;;;7.77;50.99;62794.56;5008821;28;20191;-74
2022/12/22 13:50:21;;;;;;;30.30;19.15;;;;;;;7.59;51.57;62779.03;5012954;28;20282;-76
2022/12/22 13:52:50;;;;;;;25.80;15.43;;;;;;;7.51;51.94;62775.84;5007629;28;20497;-75
2022/12/22 13:55:23;;;;;;;35.30;17.77;;;;;;;7.40;52.51;62758.94;5010211;28;20203;-76
2022/12/22 13:57:52;;;;;;;31.25;17.42;;;;;;;7.35;52.84;62756.81;4997146;28;20221;-74
2022/12/22 14:00:23;;;;;;;34.03;19.20;;;;;;;7.31;52.99;62747.09;4999427;28;20272;-75
2022/12/22 14:02:50;;;;;;;42.58;20.55;;;;;;;7.23;52.76;62743.91;5007287;28;20204;-75
2022/12/22 14:05:19;;;;;;;35.92;17.80;;;;;;;7.11;52.97;62729.50;5010345;28;20195;-77
2022/12/22 14:08:02;;;;;;;33.03;16.65;;;;;;;7.01;53.15;62722.25;5009362;28;20211;-77
2022/12/22 14:10:34;;;;;;;25.33;15.13;;;;;;;6.89;53.30;62709.88;5011569;28;20207;-78
2022/12/22 14:13:27;;;;;;;22.48;13.20;;;;;;;6.75;52.48;62694.91;5010066;28;20226;-76
2022/12/22 14:16:03;;;;;;;23.38;12.73;;;;;;;6.67;51.78;62687.19;5008418;28;20261;-76
2022/12/22 14:18:32;;;;;;;19.70;13.43;;;;;;;6.65;51.73;62684.59;5007598;28;20218;-76
2022/12/22 14:21:00;;;;;;;18.65;11.35;;;;;;;6.53;52.90;62669.69;5009136;28;20227;-77
2022/12/22 14:23:32;;;;;;;16.88;10.98;;;;;;;6.45;53.20;62663.97;5012584;28;20196;-76
2022/12/22 14:26:05;;;;;;;22.77;12.15;;;;;;;6.33;53.46;62649.59;5010105;28;20275;-77
2022/12/22 14:28:41;;;;;;;24.88;12.02;;;;;;;6.27;54.59;62642.88;5008361;28;20223;-77
2022/12/22 14:31:13;;;;;;;20.85;12.48;;;;;;;6.15;52.96;62631.03;5009388;28;20238;-76
2022/12/22 14:33:51;;;;;;;15.70;9.52;;;;;;;6.08;52.37;62623.28;5007325;28;20196;-76
2022/12/22 14:36:22;;;;;;;24.35;9.68;;;;;;;5.92;52.27;62606.81;5010651;28;20280;-76
2022/12/22 14:38:51;;;;;;;20.00;9.55;;;;;;;5.90;52.25;62609.81;5010643;28;20235;-76
2022/12/22 14:44:12;;;;;;;74.20;24.48;;;;;;;5.70;52.36;62585.16;5002827;28;20206;-76
2022/12/22 14:46:42;;;;;;;71.45;26.60;;;;;;;5.61;52.15;62572.81;5003509;28;20238;-75
2022/12/22 14:49:14;;;;;;;55.05;21.70;;;;;;;5.50;52.38;62567.06;5004162;28;20208;-76
2022/12/22 14:51:41;;;;;;;49.63;21.35;;;;;;;5.48;52.47;62561.97;5002531;28;21328;-76
2022/12/22 14:54:20;;;;;;;26.63;13.07;;;;;;;5.45;52.17;62556.84;5009248;28;20230;-75
2022/12/22 14:56:49;;;;;;;27.77;15.77;;;;;;;5.42;52.12;62555.78;4999017;28;20247;-77
2022/12/22 14:59:24;;;;;;;21.95;13.63;;;;;;;5.30;52.63;62543.41;5005872;28;20251;-76
2022/12/22 15:02:02;;;;;;;15.18;10.88;;;;;;;5.16;53.01;62529.00;5005334;28;20427;-76
2022/12/22 15:04:30;;;;;;;19.50;10.90;;;;;;;5.08;53.53;62518.75;5006567;28;20203;-78
2022/12/22 15:07:16;;;;;;;13.90;10.30;;;;;;;5.00;53.11;62513.06;5009973;28;20226;-76
2022/12/22 15:09:43;;;;;;;11.68;6.45;;;;;;;4.94;52.89;62508.88;5000702;28;20219;-75
2022/12/22 15:12:13;;;;;;;10.25;7.47;;;;;;;4.85;53.32;62502.63;5004372;28;20220;-76
2022/12/22 15:14:41;;;;;;;11.43;8.35;;;;;;;4.78;53.17;62489.88;5003724;28;20196;-77
2022/12/22 15:17:18;;;;;;;13.90;9.85;;;;;;;4.70;53.66;62482.66;5005527;28;20215;-78
2022/12/22 15:19:45;;;;;;;18.40;10.90;;;;;;;4.71;53.86;62486.22;5012234;28;20272;-75
2022/12/22 15:22:12;;;;;;;12.77;8.48;;;;;;;4.59;53.98;62468.31;5006201;28;20223;-76
2022/12/22 15:24:39;;;;;;;12.57;8.05;;;;;;;4.58;53.98;62472.31;5004089;28;20207;-76
2022/12/22 15:27:08;;;;;;;9.00;6.65;;;;;;;4.56;53.38;62470.25;5006705;28;20215;-74
2022/12/22 15:29:34;;;;;;;11.25;7.18;;;;;;;4.58;52.87;62475.38;5005377;28;20207;-77
2022/12/22 15:32:02;;;;;;;9.32;6.28;;;;;;;4.54;53.18;62466.19;5007542;28;20243;-76
2022/12/22 15:34:32;;;;;;;6.00;5.40;;;;;;;4.62;52.69;62474.44;5007617;28;20203;-76
2022/12/22 15:36:59;;;;;;;5.88;5.20;;;;;;;4.63;51.97;62472.44;5007355;28;20612;-76
2022/12/22 15:39:25;;;;;;;8.02;5.78;;;;;;;4.60;52.73;62469.34;5003630;28;20227;-76